sensor_id;sensor_type;location;lat;lon;timestamp;P1;durP1;ratioP1;P2;durP2;ratioP2
40453;SDS011;26160;51.858;4.398;2023-06-10T00:00:03;11.93;;;6.90;;
40453;SDS011;26160;51.858;4.398;2023-06-10T00:02:40;7.07;;;6.20;;
40453;SDS011;26160;51.858;4.398;2023-06-10T00:05:12;8.13;;;5.22;;
40453;SDS011;26160;51.858;4.398;2023-06-10T00:07:39;7.72;;;6.30;;
40453;SDS011;26160;51.858;4.398;2023-06-10T00:10:06;7.38;;;6.22;;
40453;SDS011;26160;51.858;4.398;2023-06-10T00:12:33;8.48;;;6.10;;
40453;SDS011;26160;51.858;4.398;2023-06-10T00:15:06;8.45;;;5.95;;
40453;SDS011;26160;51.858;4.398;2023-06-10T00:17:33;8.13;;;5.70;;
40453;SDS011;26160;51.858;4.398;2023-06-10T00:20:06;9.13;;;6.07;;
40453;SDS011;26160;51.858;4.398;2023-06-10T00:22:34;7.55;;;6.38;;
40453;SDS011;26160;51.858;4.398;2023-06-10T00:25:00;6.32;;;5.60;;
40453;SDS011;26160;51.858;4.398;2023-06-10T00:27:26;6.65;;;5.63;;
40453;SDS011;26160;51.858;4.398;2023-06-10T00:29:56;7.07;;;6.38;;
40453;SDS011;26160;51.858;4.398;2023-06-10T00:32:23;6.88;;;5.93;;
40453;SDS011;26160;51.858;4.398;2023-06-10T00:34:49;8.02;;;6.05;;
40453;SDS011;26160;51.858;4.398;2023-06-10T00:37:15;10.40;;;6.30;;
40453;SDS011;26160;51.858;4.398;2023-06-10T00:39:41;9.32;;;6.55;;
40453;SDS011;26160;51.858;4.398;2023-06-10T00:42:07;8.02;;;6.68;;
40453;SDS011;26160;51.858;4.398;2023-06-10T00:44:36;6.70;;;5.90;;
40453;SDS011;26160;51.858;4.398;2023-06-10T00:47:02;7.13;;;6.20;;
40453;SDS011;26160;51.858;4.398;2023-06-10T00:49:29;8.50;;;6.78;;
40453;SDS011;26160;51.858;4.398;2023-06-10T00:51:55;9.10;;;5.80;;
40453;SDS011;26160;51.858;4.398;2023-06-10T00:54:21;7.78;;;6.50;;
40453;SDS011;26160;51.858;4.398;2023-06-10T00:56:48;8.18;;;5.82;;
40453;SDS011;26160;51.858;4.398;2023-06-10T00:59:15;9.32;;;5.53;;
40453;SDS011;26160;51.858;4.398;2023-06-10T01:04:12;7.50;;;6.70;;
40453;SDS011;26160;51.858;4.398;2023-06-10T01:06:59;7.20;;;6.45;;
40453;SDS011;26160;51.858;4.398;2023-06-10T01:10:02;8.73;;;6.30;;
40453;SDS011;26160;51.858;4.398;2023-06-10T01:12:49;9.55;;;6.80;;
40453;SDS011;26160;51.858;4.398;2023-06-10T01:15:24;7.80;;;6.63;;
40453;SDS011;26160;51.858;4.398;2023-06-10T01:17:58;7.38;;;6.28;;
40453;SDS011;26160;51.858;4.398;2023-06-10T01:20:27;7.38;;;6.03;;
40453;SDS011;26160;51.858;4.398;2023-06-10T01:22:55;7.03;;;6.32;;
40453;SDS011;26160;51.858;4.398;2023-06-10T01:25:23;8.93;;;6.22;;
40453;SDS011;26160;51.858;4.398;2023-06-10T01:28:16;6.90;;;6.20;;
40453;SDS011;26160;51.858;4.398;2023-06-10T01:31:09;8.48;;;6.65;;
40453;SDS011;26160;51.858;4.398;2023-06-10T01:33:43;7.75;;;6.53;;
40453;SDS011;26160;51.858;4.398;2023-06-10T01:36:13;14.27;;;6.57;;
40453;SDS011;26160;51.858;4.398;2023-06-10T01:38:45;6.65;;;6.05;;
40453;SDS011;26160;51.858;4.398;2023-06-10T01:41:13;10.30;;;6.97;;
40453;SDS011;26160;51.858;4.398;2023-06-10T01:43:42;9.73;;;7.10;;
40453;SDS011;26160;51.858;4.398;2023-06-10T01:46:09;9.15;;;6.57;;
40453;SDS011;26160;51.858;4.398;2023-06-10T01:51:03;7.50;;;6.80;;
40453;SDS011;26160;51.858;4.398;2023-06-10T01:53:29;8.75;;;6.72;;
40453;SDS011;26160;51.858;4.398;2023-06-10T01:55:55;12.20;;;7.13;;
40453;SDS011;26160;51.858;4.398;2023-06-10T01:58:21;7.13;;;6.40;;
40453;SDS011;26160;51.858;4.398;2023-06-10T02:00:47;8.75;;;6.32;;
40453;SDS011;26160;51.858;4.398;2023-06-10T02:03:13;7.88;;;7.07;;
40453;SDS011;26160;51.858;4.398;2023-06-10T02:05:40;8.75;;;7.22;;
40453;SDS011;26160;51.858;4.398;2023-06-10T02:08:06;10.25;;;7.32;;
40453;SDS011;26160;51.858;4.398;2023-06-10T02:10:32;10.45;;;6.88;;
40453;SDS011;26160;51.858;4.398;2023-06-10T02:12:58;9.00;;;7.20;;
40453;SDS011;26160;51.858;4.398;2023-06-10T02:15:24;8.27;;;6.97;;
40453;SDS011;26160;51.858;4.398;2023-06-10T02:17:51;8.68;;;6.80;;
40453;SDS011;26160;51.858;4.398;2023-06-10T02:20:17;10.77;;;7.45;;
40453;SDS011;26160;51.858;4.398;2023-06-10T02:22:46;7.53;;;6.75;;
40453;SDS011;26160;51.858;4.398;2023-06-10T02:25:15;8.02;;;7.22;;
40453;SDS011;26160;51.858;4.398;2023-06-10T02:27:42;9.10;;;7.25;;
40453;SDS011;26160;51.858;4.398;2023-06-10T02:30:11;8.20;;;7.00;;
40453;SDS011;26160;51.858;4.398;2023-06-10T02:32:48;8.75;;;7.00;;
40453;SDS011;26160;51.858;4.398;2023-06-10T02:35:16;8.32;;;7.53;;
40453;SDS011;26160;51.858;4.398;2023-06-10T02:37:43;8.27;;;7.38;;
40453;SDS011;26160;51.858;4.398;2023-06-10T02:40:10;9.15;;;6.70;;
40453;SDS011;26160;51.858;4.398;2023-06-10T02:42:37;12.32;;;8.00;;
40453;SDS011;26160;51.858;4.398;2023-06-10T02:45:03;9.20;;;8.30;;
40453;SDS011;26160;51.858;4.398;2023-06-10T02:47:29;8.27;;;7.18;;
40453;SDS011;26160;51.858;4.398;2023-06-10T02:49:55;13.23;;;7.65;;
40453;SDS011;26160;51.858;4.398;2023-06-10T02:52:22;10.52;;;7.15;;
40453;SDS011;26160;51.858;4.398;2023-06-10T02:54:48;10.00;;;8.00;;
40453;SDS011;26160;51.858;4.398;2023-06-10T02:57:14;7.03;;;6.22;;
40453;SDS011;26160;51.858;4.398;2023-06-10T02:59:40;8.32;;;7.32;;
40453;SDS011;26160;51.858;4.398;2023-06-10T03:02:06;10.25;;;7.53;;
40453;SDS011;26160;51.858;4.398;2023-06-10T03:04:32;10.48;;;7.35;;
40453;SDS011;26160;51.858;4.398;2023-06-10T03:06:59;11.32;;;7.38;;
40453;SDS011;26160;51.858;4.398;2023-06-10T03:09:29;9.88;;;7.85;;
40453;SDS011;26160;51.858;4.398;2023-06-10T03:11:55;8.73;;;7.30;;
40453;SDS011;26160;51.858;4.398;2023-06-10T03:14:21;8.88;;;7.75;;
40453;SDS011;26160;51.858;4.398;2023-06-10T03:16:47;11.98;;;7.50;;
40453;SDS011;26160;51.858;4.398;2023-06-10T03:19:14;8.82;;;7.35;;
40453;SDS011;26160;51.858;4.398;2023-06-10T03:21:43;8.75;;;7.90;;
40453;SDS011;26160;51.858;4.398;2023-06-10T03:24:10;8.32;;;7.03;;
40453;SDS011;26160;51.858;4.398;2023-06-10T03:26:36;12.77;;;7.38;;
40453;SDS011;26160;51.858;4.398;2023-06-10T03:29:02;10.85;;;7.50;;
40453;SDS011;26160;51.858;4.398;2023-06-10T03:31:28;8.68;;;7.53;;
40453;SDS011;26160;51.858;4.398;2023-06-10T03:33:55;9.43;;;6.95;;
40453;SDS011;26160;51.858;4.398;2023-06-10T03:36:21;10.05;;;8.18;;
40453;SDS011;26160;51.858;4.398;2023-06-10T03:38:47;8.93;;;7.68;;
40453;SDS011;26160;51.858;4.398;2023-06-10T03:41:16;10.13;;;7.45;;
40453;SDS011;26160;51.858;4.398;2023-06-10T03:43:42;10.13;;;7.07;;
40453;SDS011;26160;51.858;4.398;2023-06-10T03:46:10;11.02;;;7.03;;
40453;SDS011;26160;51.858;4.398;2023-06-10T03:48:36;11.02;;;8.27;;
40453;SDS011;26160;51.858;4.398;2023-06-10T03:51:02;8.63;;;7.45;;
40453;SDS011;26160;51.858;4.398;2023-06-10T03:53:28;10.80;;;7.32;;
40453;SDS011;26160;51.858;4.398;2023-06-10T03:55:54;9.43;;;7.05;;
40453;SDS011;26160;51.858;4.398;2023-06-10T03:58:22;10.32;;;8.30;;
40453;SDS011;26160;51.858;4.398;2023-06-10T04:00:48;9.80;;;7.05;;
40453;SDS011;26160;51.858;4.398;2023-06-10T04:03:15;12.52;;;7.50;;
40453;SDS011;26160;51.858;4.398;2023-06-10T04:05:41;12.18;;;6.78;;
40453;SDS011;26160;51.858;4.398;2023-06-10T04:08:07;7.68;;;6.95;;
40453;SDS011;26160;51.858;4.398;2023-06-10T04:10:34;8.57;;;7.15;;
40453;SDS011;26160;51.858;4.398;2023-06-10T04:13:00;10.02;;;7.22;;
40453;SDS011;26160;51.858;4.398;2023-06-10T04:15:26;7.97;;;6.95;;
40453;SDS011;26160;51.858;4.398;2023-06-10T04:17:52;9.45;;;7.22;;
40453;SDS011;26160;51.858;4.398;2023-06-10T04:20:18;9.40;;;7.35;;
40453;SDS011;26160;51.858;4.398;2023-06-10T04:22:44;11.88;;;7.72;;
40453;SDS011;26160;51.858;4.398;2023-06-10T04:25:10;8.85;;;6.90;;
40453;SDS011;26160;51.858;4.398;2023-06-10T04:27:37;7.53;;;6.57;;
40453;SDS011;26160;51.858;4.398;2023-06-10T04:30:03;10.10;;;7.50;;
40453;SDS011;26160;51.858;4.398;2023-06-10T04:32:29;10.65;;;7.30;;
40453;SDS011;26160;51.858;4.398;2023-06-10T04:34:55;8.88;;;7.10;;
40453;SDS011;26160;51.858;4.398;2023-06-10T04:37:22;8.57;;;6.57;;
40453;SDS011;26160;51.858;4.398;2023-06-10T04:39:48;7.35;;;6.53;;
40453;SDS011;26160;51.858;4.398;2023-06-10T04:42:14;8.45;;;6.70;;
40453;SDS011;26160;51.858;4.398;2023-06-10T04:44:40;8.48;;;6.97;;
40453;SDS011;26160;51.858;4.398;2023-06-10T04:47:07;9.52;;;7.20;;
40453;SDS011;26160;51.858;4.398;2023-06-10T04:49:33;9.18;;;6.68;;
40453;SDS011;26160;51.858;4.398;2023-06-10T04:52:00;12.70;;;6.57;;
40453;SDS011;26160;51.858;4.398;2023-06-10T04:54:30;8.80;;;6.05;;
40453;SDS011;26160;51.858;4.398;2023-06-10T04:56:57;10.05;;;6.43;;
40453;SDS011;26160;51.858;4.398;2023-06-10T04:59:23;8.02;;;6.88;;
40453;SDS011;26160;51.858;4.398;2023-06-10T05:01:49;7.82;;;6.70;;
40453;SDS011;26160;51.858;4.398;2023-06-10T05:04:15;8.63;;;5.97;;
40453;SDS011;26160;51.858;4.398;2023-06-10T05:06:41;9.30;;;6.53;;
40453;SDS011;26160;51.858;4.398;2023-06-10T05:09:07;8.85;;;6.28;;
40453;SDS011;26160;51.858;4.398;2023-06-10T05:11:33;7.45;;;5.90;;
40453;SDS011;26160;51.858;4.398;2023-06-10T05:13:59;10.20;;;6.88;;
40453;SDS011;26160;51.858;4.398;2023-06-10T05:16:25;9.40;;;6.68;;
40453;SDS011;26160;51.858;4.398;2023-06-10T05:18:51;9.05;;;6.70;;
40453;SDS011;26160;51.858;4.398;2023-06-10T05:21:17;9.38;;;6.68;;
40453;SDS011;26160;51.858;4.398;2023-06-10T05:23:43;7.57;;;6.22;;
40453;SDS011;26160;51.858;4.398;2023-06-10T05:26:09;8.10;;;6.30;;
40453;SDS011;26160;51.858;4.398;2023-06-10T05:28:36;10.82;;;6.95;;
40453;SDS011;26160;51.858;4.398;2023-06-10T05:31:02;7.80;;;6.55;;
40453;SDS011;26160;51.858;4.398;2023-06-10T05:33:28;8.20;;;6.18;;
40453;SDS011;26160;51.858;4.398;2023-06-10T05:35:54;10.18;;;6.47;;
40453;SDS011;26160;51.858;4.398;2023-06-10T05:38:21;9.35;;;6.40;;
40453;SDS011;26160;51.858;4.398;2023-06-10T05:40:47;8.27;;;6.82;;
40453;SDS011;26160;51.858;4.398;2023-06-10T05:43:13;9.52;;;6.45;;
40453;SDS011;26160;51.858;4.398;2023-06-10T05:45:42;7.93;;;6.32;;
40453;SDS011;26160;51.858;4.398;2023-06-10T05:48:08;8.57;;;6.13;;
40453;SDS011;26160;51.858;4.398;2023-06-10T05:50:34;8.50;;;6.57;;
40453;SDS011;26160;51.858;4.398;2023-06-10T05:53:04;10.68;;;6.95;;
40453;SDS011;26160;51.858;4.398;2023-06-10T05:55:32;8.65;;;6.10;;
40453;SDS011;26160;51.858;4.398;2023-06-10T05:57:59;9.48;;;6.68;;
40453;SDS011;26160;51.858;4.398;2023-06-10T06:00:25;8.32;;;6.05;;
40453;SDS011;26160;51.858;4.398;2023-06-10T06:02:52;9.15;;;7.05;;
40453;SDS011;26160;51.858;4.398;2023-06-10T06:05:19;9.40;;;6.15;;
40453;SDS011;26160;51.858;4.398;2023-06-10T06:07:45;10.23;;;6.70;;
40453;SDS011;26160;51.858;4.398;2023-06-10T06:10:11;16.77;;;7.53;;
40453;SDS011;26160;51.858;4.398;2023-06-10T06:12:37;10.02;;;7.03;;
40453;SDS011;26160;51.858;4.398;2023-06-10T06:15:03;9.50;;;6.57;;
40453;SDS011;26160;51.858;4.398;2023-06-10T06:17:30;10.82;;;6.47;;
40453;SDS011;26160;51.858;4.398;2023-06-10T06:19:56;11.80;;;6.68;;
40453;SDS011;26160;51.858;4.398;2023-06-10T06:22:22;9.05;;;6.10;;
40453;SDS011;26160;51.858;4.398;2023-06-10T06:24:48;9.52;;;6.40;;
40453;SDS011;26160;51.858;4.398;2023-06-10T06:27:15;10.52;;;7.03;;
40453;SDS011;26160;51.858;4.398;2023-06-10T06:29:41;10.85;;;7.10;;
40453;SDS011;26160;51.858;4.398;2023-06-10T06:32:07;11.10;;;6.05;;
40453;SDS011;26160;51.858;4.398;2023-06-10T06:34:33;9.55;;;6.80;;
40453;SDS011;26160;51.858;4.398;2023-06-10T06:36:59;9.07;;;6.95;;
40453;SDS011;26160;51.858;4.398;2023-06-10T06:39:26;10.65;;;6.93;;
40453;SDS011;26160;51.858;4.398;2023-06-10T06:41:52;11.80;;;6.63;;
40453;SDS011;26160;51.858;4.398;2023-06-10T06:44:19;12.18;;;6.63;;
40453;SDS011;26160;51.858;4.398;2023-06-10T06:46:45;10.15;;;6.90;;
40453;SDS011;26160;51.858;4.398;2023-06-10T06:49:11;10.35;;;6.75;;
40453;SDS011;26160;51.858;4.398;2023-06-10T06:51:37;10.73;;;6.53;;
40453;SDS011;26160;51.858;4.398;2023-06-10T06:54:03;9.90;;;6.75;;
40453;SDS011;26160;51.858;4.398;2023-06-10T06:56:31;13.10;;;6.78;;
40453;SDS011;26160;51.858;4.398;2023-06-10T06:58:57;9.60;;;6.38;;
40453;SDS011;26160;51.858;4.398;2023-06-10T07:01:23;11.25;;;6.70;;
40453;SDS011;26160;51.858;4.398;2023-06-10T07:03:49;10.48;;;6.53;;
40453;SDS011;26160;51.858;4.398;2023-06-10T07:06:15;10.82;;;6.50;;
40453;SDS011;26160;51.858;4.398;2023-06-10T07:08:41;9.75;;;5.90;;
40453;SDS011;26160;51.858;4.398;2023-06-10T07:11:07;10.48;;;6.78;;
40453;SDS011;26160;51.858;4.398;2023-06-10T07:13:33;7.85;;;6.25;;
40453;SDS011;26160;51.858;4.398;2023-06-10T07:15:59;9.27;;;6.57;;
40453;SDS011;26160;51.858;4.398;2023-06-10T07:18:26;9.82;;;6.00;;
40453;SDS011;26160;51.858;4.398;2023-06-10T07:20:52;12.52;;;6.97;;
40453;SDS011;26160;51.858;4.398;2023-06-10T07:23:18;8.80;;;6.57;;
40453;SDS011;26160;51.858;4.398;2023-06-10T07:25:44;7.40;;;5.97;;
40453;SDS011;26160;51.858;4.398;2023-06-10T07:28:10;11.20;;;6.72;;
40453;SDS011;26160;51.858;4.398;2023-06-10T07:30:36;8.95;;;6.15;;
40453;SDS011;26160;51.858;4.398;2023-06-10T07:33:02;9.95;;;6.43;;
40453;SDS011;26160;51.858;4.398;2023-06-10T07:35:28;10.13;;;5.53;;
40453;SDS011;26160;51.858;4.398;2023-06-10T07:37:54;11.93;;;5.40;;
40453;SDS011;26160;51.858;4.398;2023-06-10T07:40:21;10.05;;;6.47;;
40453;SDS011;26160;51.858;4.398;2023-06-10T07:42:47;9.35;;;5.63;;
40453;SDS011;26160;51.858;4.398;2023-06-10T07:45:13;6.47;;;5.80;;
40453;SDS011;26160;51.858;4.398;2023-06-10T07:47:39;8.77;;;5.85;;
40453;SDS011;26160;51.858;4.398;2023-06-10T07:50:05;9.02;;;5.90;;
40453;SDS011;26160;51.858;4.398;2023-06-10T07:52:31;12.70;;;6.03;;
40453;SDS011;26160;51.858;4.398;2023-06-10T07:54:57;7.60;;;6.10;;
40453;SDS011;26160;51.858;4.398;2023-06-10T07:57:23;8.77;;;6.03;;
40453;SDS011;26160;51.858;4.398;2023-06-10T07:59:50;11.73;;;5.47;;
40453;SDS011;26160;51.858;4.398;2023-06-10T08:02:16;7.75;;;5.70;;
40453;SDS011;26160;51.858;4.398;2023-06-10T08:04:42;7.75;;;5.50;;
40453;SDS011;26160;51.858;4.398;2023-06-10T08:07:08;10.65;;;6.00;;
40453;SDS011;26160;51.858;4.398;2023-06-10T08:09:34;7.53;;;5.68;;
40453;SDS011;26160;51.858;4.398;2023-06-10T08:12:00;9.82;;;6.03;;
40453;SDS011;26160;51.858;4.398;2023-06-10T08:14:27;8.77;;;5.65;;
40453;SDS011;26160;51.858;4.398;2023-06-10T08:16:53;7.18;;;5.97;;
40453;SDS011;26160;51.858;4.398;2023-06-10T08:19:19;7.13;;;5.63;;
40453;SDS011;26160;51.858;4.398;2023-06-10T08:21:45;8.52;;;5.55;;
40453;SDS011;26160;51.858;4.398;2023-06-10T08:24:11;6.45;;;4.80;;
40453;SDS011;26160;51.858;4.398;2023-06-10T08:26:38;6.82;;;5.53;;
40453;SDS011;26160;51.858;4.398;2023-06-10T08:29:04;9.18;;;5.05;;
40453;SDS011;26160;51.858;4.398;2023-06-10T08:31:30;9.23;;;5.68;;
40453;SDS011;26160;51.858;4.398;2023-06-10T08:33:56;9.25;;;5.57;;
40453;SDS011;26160;51.858;4.398;2023-06-10T08:36:22;8.75;;;5.60;;
40453;SDS011;26160;51.858;4.398;2023-06-10T08:38:48;8.73;;;5.40;;
40453;SDS011;26160;51.858;4.398;2023-06-10T08:41:15;8.30;;;5.10;;
40453;SDS011;26160;51.858;4.398;2023-06-10T08:44:08;6.63;;;5.10;;
40453;SDS011;26160;51.858;4.398;2023-06-10T08:46:46;8.75;;;5.50;;
40453;SDS011;26160;51.858;4.398;2023-06-10T08:49:15;7.28;;;4.65;;
40453;SDS011;26160;51.858;4.398;2023-06-10T08:51:47;8.57;;;5.13;;
40453;SDS011;26160;51.858;4.398;2023-06-10T08:54:17;8.00;;;4.75;;
40453;SDS011;26160;51.858;4.398;2023-06-10T08:56:48;6.88;;;4.05;;
40453;SDS011;26160;51.858;4.398;2023-06-10T08:59:16;7.90;;;4.60;;
40453;SDS011;26160;51.858;4.398;2023-06-10T09:01:43;8.80;;;5.03;;
40453;SDS011;26160;51.858;4.398;2023-06-10T09:04:10;9.93;;;4.80;;
40453;SDS011;26160;51.858;4.398;2023-06-10T09:06:36;10.52;;;5.55;;
40453;SDS011;26160;51.858;4.398;2023-06-10T09:09:05;6.95;;;4.85;;
40453;SDS011;26160;51.858;4.398;2023-06-10T09:11:33;6.90;;;5.10;;
40453;SDS011;26160;51.858;4.398;2023-06-10T09:13:59;7.97;;;4.88;;
40453;SDS011;26160;51.858;4.398;2023-06-10T09:16:25;6.75;;;4.65;;
40453;SDS011;26160;51.858;4.398;2023-06-10T09:18:52;10.73;;;4.90;;
40453;SDS011;26160;51.858;4.398;2023-06-10T09:21:23;6.30;;;4.65;;
40453;SDS011;26160;51.858;4.398;2023-06-10T09:23:50;10.88;;;5.00;;
40453;SDS011;26160;51.858;4.398;2023-06-10T09:26:17;8.90;;;5.50;;
40453;SDS011;26160;51.858;4.398;2023-06-10T09:28:44;6.47;;;4.75;;
40453;SDS011;26160;51.858;4.398;2023-06-10T09:31:13;10.40;;;5.05;;
40453;SDS011;26160;51.858;4.398;2023-06-10T09:33:44;9.75;;;5.15;;
40453;SDS011;26160;51.858;4.398;2023-06-10T09:36:10;8.88;;;5.05;;
40453;SDS011;26160;51.858;4.398;2023-06-10T09:38:37;8.38;;;5.20;;
40453;SDS011;26160;51.858;4.398;2023-06-10T09:41:03;9.00;;;4.47;;
40453;SDS011;26160;51.858;4.398;2023-06-10T09:43:43;7.85;;;5.03;;
40453;SDS011;26160;51.858;4.398;2023-06-10T09:46:16;7.03;;;4.47;;
40453;SDS011;26160;51.858;4.398;2023-06-10T09:48:44;11.20;;;4.85;;
40453;SDS011;26160;51.858;4.398;2023-06-10T09:51:12;6.00;;;4.95;;
40453;SDS011;26160;51.858;4.398;2023-06-10T09:53:39;6.72;;;4.35;;
40453;SDS011;26160;51.858;4.398;2023-06-10T09:56:05;7.30;;;4.47;;
40453;SDS011;26160;51.858;4.398;2023-06-10T09:58:35;7.85;;;4.53;;
40453;SDS011;26160;51.858;4.398;2023-06-10T10:01:06;7.57;;;4.47;;
40453;SDS011;26160;51.858;4.398;2023-06-10T10:03:42;5.03;;;4.53;;
40453;SDS011;26160;51.858;4.398;2023-06-10T10:06:16;5.20;;;4.47;;
40453;SDS011;26160;51.858;4.398;2023-06-10T10:08:43;6.07;;;4.80;;
40453;SDS011;26160;51.858;4.398;2023-06-10T10:11:11;5.03;;;4.35;;
40453;SDS011;26160;51.858;4.398;2023-06-10T10:13:37;6.05;;;4.68;;
40453;SDS011;26160;51.858;4.398;2023-06-10T10:16:09;10.07;;;4.70;;
40453;SDS011;26160;51.858;4.398;2023-06-10T10:18:39;8.10;;;4.32;;
40453;SDS011;26160;51.858;4.398;2023-06-10T10:21:11;5.95;;;4.22;;
40453;SDS011;26160;51.858;4.398;2023-06-10T10:24:26;7.95;;;4.40;;
40453;SDS011;26160;51.858;4.398;2023-06-10T10:26:25;5.60;;;4.45;;
40453;SDS011;26160;51.858;4.398;2023-06-10T10:28:56;4.93;;;4.00;;
40453;SDS011;26160;51.858;4.398;2023-06-10T10:31:30;4.93;;;4.45;;
40453;SDS011;26160;51.858;4.398;2023-06-10T10:34:00;6.15;;;4.13;;
40453;SDS011;26160;51.858;4.398;2023-06-10T10:36:30;6.32;;;4.57;;
40453;SDS011;26160;51.858;4.398;2023-06-10T10:38:56;6.75;;;4.10;;
40453;SDS011;26160;51.858;4.398;2023-06-10T10:41:24;8.73;;;4.18;;
40453;SDS011;26160;51.858;4.398;2023-06-10T10:43:51;4.88;;;4.30;;
40453;SDS011;26160;51.858;4.398;2023-06-10T10:46:19;6.47;;;4.03;;
40453;SDS011;26160;51.858;4.398;2023-06-10T10:48:45;5.65;;;3.90;;
40453;SDS011;26160;51.858;4.398;2023-06-10T10:51:17;5.80;;;3.92;;
40453;SDS011;26160;51.858;4.398;2023-06-10T10:53:43;7.25;;;4.63;;
40453;SDS011;26160;51.858;4.398;2023-06-10T10:56:14;5.32;;;4.00;;
40453;SDS011;26160;51.858;4.398;2023-06-10T10:59:01;5.32;;;3.90;;
40453;SDS011;26160;51.858;4.398;2023-06-10T11:01:39;5.82;;;3.88;;
40453;SDS011;26160;51.858;4.398;2023-06-10T11:04:12;5.53;;;4.00;;
40453;SDS011;26160;51.858;4.398;2023-06-10T11:06:38;7.15;;;3.65;;
40453;SDS011;26160;51.858;4.398;2023-06-10T11:11:59;4.93;;;4.07;;
40453;SDS011;26160;51.858;4.398;2023-06-10T11:14:29;4.97;;;3.65;;
40453;SDS011;26160;51.858;4.398;2023-06-10T11:16:59;6.70;;;3.90;;
40453;SDS011;26160;51.858;4.398;2023-06-10T11:19:35;5.75;;;3.88;;
40453;SDS011;26160;51.858;4.398;2023-06-10T11:22:05;7.72;;;4.00;;
40453;SDS011;26160;51.858;4.398;2023-06-10T11:24:32;4.03;;;3.58;;
40453;SDS011;26160;51.858;4.398;2023-06-10T11:27:14;4.28;;;3.67;;
40453;SDS011;26160;51.858;4.398;2023-06-10T11:32:33;5.80;;;3.92;;
40453;SDS011;26160;51.858;4.398;2023-06-10T11:35:03;5.70;;;3.55;;
40453;SDS011;26160;51.858;4.398;2023-06-10T11:37:30;5.28;;;3.88;;
40453;SDS011;26160;51.858;4.398;2023-06-10T11:39:56;4.65;;;3.75;;
40453;SDS011;26160;51.858;4.398;2023-06-10T11:42:24;5.88;;;3.97;;
40453;SDS011;26160;51.858;4.398;2023-06-10T11:44:50;6.00;;;4.05;;
40453;SDS011;26160;51.858;4.398;2023-06-10T11:47:18;4.55;;;3.50;;
40453;SDS011;26160;51.858;4.398;2023-06-10T11:49:45;6.68;;;3.97;;
40453;SDS011;26160;51.858;4.398;2023-06-10T11:52:27;5.47;;;4.10;;
40453;SDS011;26160;51.858;4.398;2023-06-10T11:54:59;5.78;;;3.50;;
40453;SDS011;26160;51.858;4.398;2023-06-10T11:57:25;7.22;;;3.88;;
40453;SDS011;26160;51.858;4.398;2023-06-10T11:59:51;7.32;;;4.60;;
40453;SDS011;26160;51.858;4.398;2023-06-10T12:02:17;5.50;;;3.67;;
40453;SDS011;26160;51.858;4.398;2023-06-10T12:04:44;5.28;;;4.03;;
40453;SDS011;26160;51.858;4.398;2023-06-10T12:07:17;6.13;;;4.07;;
40453;SDS011;26160;51.858;4.398;2023-06-10T12:09:45;5.72;;;3.75;;
40453;SDS011;26160;51.858;4.398;2023-06-10T12:12:11;7.53;;;3.75;;
40453;SDS011;26160;51.858;4.398;2023-06-10T12:17:20;8.00;;;4.15;;
40453;SDS011;26160;51.858;4.398;2023-06-10T12:20:08;4.65;;;4.13;;
40453;SDS011;26160;51.858;4.398;2023-06-10T12:22:49;5.90;;;3.65;;
40453;SDS011;26160;51.858;4.398;2023-06-10T12:25:15;6.15;;;4.57;;
40453;SDS011;26160;51.858;4.398;2023-06-10T12:27:51;6.13;;;4.20;;
40453;SDS011;26160;51.858;4.398;2023-06-10T12:30:25;7.15;;;4.22;;
40453;SDS011;26160;51.858;4.398;2023-06-10T12:32:52;5.03;;;4.03;;
40453;SDS011;26160;51.858;4.398;2023-06-10T12:35:27;6.22;;;3.97;;
40453;SDS011;26160;51.858;4.398;2023-06-10T12:37:54;5.40;;;3.90;;
40453;SDS011;26160;51.858;4.398;2023-06-10T12:40:28;6.20;;;4.00;;
40453;SDS011;26160;51.858;4.398;2023-06-10T12:42:57;5.32;;;3.67;;
40453;SDS011;26160;51.858;4.398;2023-06-10T12:45:30;5.63;;;4.47;;
40453;SDS011;26160;51.858;4.398;2023-06-10T12:48:07;3.97;;;3.67;;
40453;SDS011;26160;51.858;4.398;2023-06-10T12:50:38;6.70;;;4.13;;
40453;SDS011;26160;51.858;4.398;2023-06-10T12:53:06;8.18;;;4.20;;
40453;SDS011;26160;51.858;4.398;2023-06-10T12:55:33;8.00;;;4.03;;
40453;SDS011;26160;51.858;4.398;2023-06-10T12:57:59;5.93;;;3.95;;
40453;SDS011;26160;51.858;4.398;2023-06-10T13:00:27;5.05;;;4.13;;
40453;SDS011;26160;51.858;4.398;2023-06-10T13:02:59;5.75;;;4.05;;
40453;SDS011;26160;51.858;4.398;2023-06-10T13:05:31;6.95;;;4.30;;
40453;SDS011;26160;51.858;4.398;2023-06-10T13:07:57;4.80;;;4.00;;
40453;SDS011;26160;51.858;4.398;2023-06-10T13:10:24;6.22;;;3.72;;
40453;SDS011;26160;51.858;4.398;2023-06-10T13:12:51;5.20;;;3.80;;
40453;SDS011;26160;51.858;4.398;2023-06-10T13:15:20;5.47;;;4.40;;
40453;SDS011;26160;51.858;4.398;2023-06-10T13:17:46;4.90;;;4.15;;
40453;SDS011;26160;51.858;4.398;2023-06-10T13:20:14;9.00;;;4.53;;
40453;SDS011;26160;51.858;4.398;2023-06-10T13:22:44;4.55;;;4.13;;
40453;SDS011;26160;51.858;4.398;2023-06-10T13:25:10;4.72;;;4.10;;
40453;SDS011;26160;51.858;4.398;2023-06-10T13:27:37;5.95;;;3.80;;
40453;SDS011;26160;51.858;4.398;2023-06-10T13:30:06;4.82;;;4.20;;
40453;SDS011;26160;51.858;4.398;2023-06-10T13:32:32;4.90;;;4.10;;
40453;SDS011;26160;51.858;4.398;2023-06-10T13:34:58;5.70;;;3.90;;
40453;SDS011;26160;51.858;4.398;2023-06-10T13:37:24;6.15;;;4.47;;
40453;SDS011;26160;51.858;4.398;2023-06-10T13:39:51;4.80;;;4.18;;
40453;SDS011;26160;51.858;4.398;2023-06-10T13:42:17;5.95;;;4.20;;
40453;SDS011;26160;51.858;4.398;2023-06-10T13:44:43;4.25;;;3.88;;
40453;SDS011;26160;51.858;4.398;2023-06-10T13:47:10;6.40;;;4.78;;
40453;SDS011;26160;51.858;4.398;2023-06-10T13:49:36;6.45;;;4.40;;
40453;SDS011;26160;51.858;4.398;2023-06-10T13:52:02;5.80;;;3.83;;
40453;SDS011;26160;51.858;4.398;2023-06-10T13:54:29;6.18;;;3.88;;
40453;SDS011;26160;51.858;4.398;2023-06-10T13:56:55;5.68;;;4.28;;
40453;SDS011;26160;51.858;4.398;2023-06-10T13:59:21;4.72;;;3.63;;
40453;SDS011;26160;51.858;4.398;2023-06-10T14:01:48;4.38;;;3.97;;
40453;SDS011;26160;51.858;4.398;2023-06-10T14:04:14;8.82;;;3.90;;
40453;SDS011;26160;51.858;4.398;2023-06-10T14:06:40;4.80;;;4.10;;
40453;SDS011;26160;51.858;4.398;2023-06-10T14:09:06;7.35;;;4.00;;
40453;SDS011;26160;51.858;4.398;2023-06-10T14:11:32;9.30;;;4.22;;
40453;SDS011;26160;51.858;4.398;2023-06-10T14:14:00;6.80;;;3.72;;
40453;SDS011;26160;51.858;4.398;2023-06-10T14:16:30;6.97;;;4.32;;
40453;SDS011;26160;51.858;4.398;2023-06-10T14:18:56;6.13;;;4.05;;
40453;SDS011;26160;51.858;4.398;2023-06-10T14:21:22;4.35;;;3.90;;
40453;SDS011;26160;51.858;4.398;2023-06-10T14:23:48;5.90;;;4.03;;
40453;SDS011;26160;51.858;4.398;2023-06-10T14:26:15;7.97;;;4.13;;
40453;SDS011;26160;51.858;4.398;2023-06-10T14:28:41;9.60;;;4.93;;
40453;SDS011;26160;51.858;4.398;2023-06-10T14:31:07;7.55;;;4.05;;
40453;SDS011;26160;51.858;4.398;2023-06-10T14:33:33;4.70;;;3.50;;
40453;SDS011;26160;51.858;4.398;2023-06-10T14:35:59;11.73;;;4.03;;
40453;SDS011;26160;51.858;4.398;2023-06-10T14:38:26;7.18;;;3.90;;
40453;SDS011;26160;51.858;4.398;2023-06-10T14:40:52;5.35;;;3.67;;
40453;SDS011;26160;51.858;4.398;2023-06-10T14:43:18;5.65;;;4.05;;
40453;SDS011;26160;51.858;4.398;2023-06-10T14:45:44;4.28;;;3.70;;
40453;SDS011;26160;51.858;4.398;2023-06-10T14:48:10;6.53;;;3.80;;
40453;SDS011;26160;51.858;4.398;2023-06-10T14:50:38;4.78;;;4.10;;
40453;SDS011;26160;51.858;4.398;2023-06-10T14:53:06;5.90;;;4.50;;
40453;SDS011;26160;51.858;4.398;2023-06-10T14:55:32;4.82;;;4.20;;
40453;SDS011;26160;51.858;4.398;2023-06-10T14:57:58;5.00;;;3.47;;
40453;SDS011;26160;51.858;4.398;2023-06-10T15:00:24;4.80;;;4.10;;
40453;SDS011;26160;51.858;4.398;2023-06-10T15:02:51;7.93;;;3.70;;